Time;durP1;ratioP1;P1;durP2;ratioP2;P2;SDS_P1;SDS_P2;PMS_P1;PMS_P2;Temp;Humidity;BMP_temperature;BMP_pressure;BME280_temperature;BME280_humidity;BME280_pressure;Samples;Min_cycle;Max_cycle;Signal;HPM_P1;HPM_P2
2021/03/20 00:01:00;;;;;;;4.20;2.33;;;;;;;3.13;75.99;103184.28;5074219;28;20052;-50
2021/03/20 00:03:27;;;;;;;4.35;1.90;;;;;;;3.10;76.49;103180.00;5068841;28;20053;-49
2021/03/20 00:05:55;;;;;;;3.08;1.73;;;;;;;3.08;76.25;103193.97;5053985;28;20502;-52
2021/03/20 00:08:32;;;;;;;3.38;1.67;;;;;;;3.05;76.43;103190.72;5059111;28;20057;-49
2021/03/20 00:10:59;;;;;;;2.92;1.60;;;;;;;3.03;76.75;103192.81;5072401;28;20098;-48
2021/03/20 00:13:26;;;;;;;5.57;2.20;;;;;;;2.99;76.52;103184.09;5068179;28;20087;-49
2021/03/20 00:15:53;;;;;;;3.92;1.73;;;;;;;2.98;76.65;103189.81;5057674;28;20057;-50
2021/03/20 00:18:23;;;;;;;3.38;1.50;;;;;;;2.93;76.41;103193.13;5058678;28;20540;-49
2021/03/20 00:20:50;;;;;;;4.50;1.60;;;;;;;2.88;76.36;103201.13;5068632;28;20044;-48
2021/03/20 00:23:17;;;;;;;3.05;1.45;;;;;;;2.84;76.36;103205.28;5068198;28;20045;-47
2021/03/20 00:25:45;;;;;;;3.40;1.58;;;;;;;2.81;76.58;103191.88;5069760;28;20056;-49
2021/03/20 00:28:14;;;;;;;3.33;1.40;;;;;;;2.76;76.34;103197.13;5068053;28;20041;-47
2021/03/20 00:30:41;;;;;;;3.75;1.33;;;;;;;2.70;76.42;103197.88;5063361;28;20452;-46
2021/03/20 00:33:08;;;;;;;3.72;1.38;;;;;;;2.65;76.47;103203.97;5057881;28;20052;-47
2021/03/20 00:35:36;;;;;;;2.70;1.25;;;;;;;2.61;76.78;103207.28;5062182;28;20559;-47
2021/03/20 00:38:02;;;;;;;2.85;1.30;;;;;;;2.55;76.67;103208.06;5070602;28;20247;-47
2021/03/20 00:40:31;;;;;;;4.63;1.98;;;;;;;2.50;76.85;103202.25;5064061;28;20688;-47
2021/03/20 00:42:58;;;;;;;2.97;1.30;;;;;;;2.44;76.61;103201.09;5055178;28;20068;-51
2021/03/20 00:45:29;;;;;;;3.55;1.58;;;;;;;2.41;77.12;103205.06;5061917;28;20093;-47
2021/03/20 00:48:02;;;;;;;4.78;1.90;;;;;;;2.37;77.13;103206.53;5072770;28;20098;-49
2021/03/20 00:50:29;;;;;;;3.28;1.77;;;;;;;2.32;76.57;103208.97;5058130;28;20140;-49
2021/03/20 00:52:57;;;;;;;2.92;1.80;;;;;;;2.29;76.85;103212.09;5073256;28;20071;-50
2021/03/20 00:55:24;;;;;;;4.07;1.70;;;;;;;2.25;77.15;103207.13;5065927;28;20036;-51
2021/03/20 00:57:51;;;;;;;2.65;1.70;;;;;;;2.19;77.23;103203.25;5053476;28;20053;-47
2021/03/20 01:00:21;;;;;;;3.35;1.90;;;;;;;2.17;77.21;103204.47;5057821;28;20545;-49
2021/03/20 01:02:48;;;;;;;3.90;1.60;;;;;;;2.11;76.98;103206.06;5073254;28;20052;-45
2021/03/20 01:05:16;;;;;;;2.65;1.70;;;;;;;2.07;77.32;103199.22;5067562;28;20071;-49
2021/03/20 01:07:43;;;;;;;3.72;1.80;;;;;;;2.02;77.35;103207.16;5054743;28;20045;-47
2021/03/20 01:10:18;;;;;;;4.38;2.10;;;;;;;1.97;77.21;103198.63;5058151;28;20041;-46
2021/03/20 01:12:45;;;;;;;5.35;2.17;;;;;;;1.91;76.88;103196.59;5069672;28;20048;-48
2021/03/20 01:15:16;;;;;;;4.97;1.60;;;;;;;1.88;77.54;103202.47;5066882;28;20051;-48
2021/03/20 01:17:43;;;;;;;4.72;1.70;;;;;;;1.83;77.31;103192.00;5058113;28;20080;-46
2021/03/20 01:20:12;;;;;;;4.43;2.05;;;;;;;1.81;77.58;103195.97;5057673;28;20044;-46
2021/03/20 01:22:39;;;;;;;3.17;1.92;;;;;;;1.76;77.36;103192.94;5065028;28;20080;-50
2021/03/20 01:25:08;;;;;;;5.43;1.98;;;;;;;1.72;77.11;103190.56;5067846;28;20469;-48
2021/03/20 01:27:37;;;;;;;4.80;2.05;;;;;;;1.72;77.66;103189.69;5062403;28;20057;-47
2021/03/20 01:30:05;;;;;;;3.70;2.15;;;;;;;1.70;77.26;103187.13;5066912;28;20041;-48
2021/03/20 01:32:32;;;;;;;3.90;2.00;;;;;;;1.69;77.48;103190.06;5050617;28;20048;-51
2021/03/20 01:34:59;;;;;;;4.03;1.65;;;;;;;1.65;77.84;103189.56;5069044;28;20080;-52
2021/03/20 01:37:26;;;;;;;3.60;1.70;;;;;;;1.61;77.19;103182.72;5063270;28;20048;-48
2021/03/20 01:39:53;;;;;;;3.95;1.73;;;;;;;1.58;77.84;103177.59;5053930;28;20048;-51
2021/03/20 01:42:20;;;;;;;3.05;1.67;;;;;;;1.54;77.42;103181.75;5059210;28;20056;-49
2021/03/20 01:45:10;;;;;;;3.45;2.03;;;;;;;1.51;77.61;103182.13;5071892;28;20130;-48
2021/03/20 01:47:47;;;;;;;5.03;2.45;;;;;;;1.45;77.59;103182.84;5060312;28;20049;-48
2021/03/20 01:50:20;;;;;;;4.47;2.47;;;;;;;1.41;77.42;103175.13;5053268;28;20057;-47
2021/03/20 01:52:52;;;;;;;5.60;2.17;;;;;;;1.37;77.70;103180.16;5059962;28;20041;-51
2021/03/20 01:55:20;;;;;;;3.83;2.25;;;;;;;1.33;78.03;103170.53;5053220;28;20053;-47
2021/03/20 01:57:50;;;;;;;6.43;3.28;;;;;;;1.32;77.78;103168.81;5057698;28;20095;-47
2021/03/20 02:00:23;;;;;;;3.85;2.20;;;;;;;1.30;77.50;103168.16;5071931;28;20056;-47
2021/03/20 02:02:50;;;;;;;4.88;2.00;;;;;;;1.26;77.92;103172.28;5064148;28;20048;-45
2021/03/20 02:05:21;;;;;;;3.92;1.90;;;;;;;1.24;78.22;103163.38;5050214;28;20044;-49
2021/03/20 02:07:48;;;;;;;4.25;2.03;;;;;;;1.22;77.70;103165.44;5058339;28;20052;-49
2021/03/20 02:10:16;;;;;;;3.78;2.22;;;;;;;1.18;77.59;103164.97;5071967;28;20094;-48
2021/03/20 02:12:46;;;;;;;3.30;2.10;;;;;;;1.15;77.75;103164.47;5065665;28;20044;-48
2021/03/20 02:15:19;;;;;;;3.83;1.98;;;;;;;1.11;78.08;103157.59;5052340;28;20057;-50
2021/03/20 02:17:52;;;;;;;4.10;2.45;;;;;;;1.09;78.11;103165.19;5056326;28;20056;-46
2021/03/20 02:20:40;;;;;;;4.05;2.10;;;;;;;1.06;78.51;103168.28;5070588;28;20060;-46
2021/03/20 02:23:36;;;;;;;3.30;1.70;;;;;;;1.02;77.81;103165.88;5065970;28;20445;-48
2021/03/20 02:26:19;;;;;;;3.67;2.03;;;;;;;0.98;78.37;103166.44;5054377;28;20049;-51
2021/03/20 02:28:57;;;;;;;;;;;;;;;0.87;78.02;103159.44;5063946;28;20076;-50
2021/03/20 02:31:41;;;;;;;4.07;1.92;;;;;;;0.83;78.94;103162.72;5052019;28;19974;-48
2021/03/20 02:34:18;;;;;;;2.90;1.50;;;;;;;0.82;78.56;103166.50;5060167;28;20057;-48
2021/03/20 02:36:56;;;;;;;4.45;1.80;;;;;;;0.80;78.39;103169.41;5069722;28;20110;-49
2021/03/20 02:39:27;;;;;;;3.33;2.00;;;;;;;0.77;78.19;103175.31;5058841;28;20056;-48
2021/03/20 02:41:58;;;;;;;3.75;2.50;;;;;;;0.74;79.16;103166.53;5052892;28;20057;-51
2021/03/20 02:44:32;;;;;;;4.40;1.98;;;;;;;0.72;78.84;103169.47;5059379;28;20040;-46
2021/03/20 02:47:02;;;;;;;3.92;2.03;;;;;;;0.68;78.82;103166.22;5069746;28;20129;-51
2021/03/20 02:49:39;;;;;;;3.35;2.20;;;;;;;0.66;78.52;103173.78;5063543;28;20037;-49
2021/03/20 02:52:11;;;;;;;2.85;1.70;;;;;;;0.62;78.86;103172.41;5051813;28;20048;-46
2021/03/20 02:54:44;;;;;;;3.73;2.20;;;;;;;0.60;78.40;103173.66;5062841;28;20040;-48
2021/03/20 02:57:15;;;;;;;3.60;1.92;;;;;;;0.57;79.29;103180.34;5051275;28;20304;-50
2021/03/20 02:59:47;;;;;;;3.45;2.10;;;;;;;0.56;78.88;103180.53;5062758;28;20071;-51
2021/03/20 03:02:16;;;;;;;5.75;2.80;;;;;;;0.53;79.60;103175.38;5050889;28;20498;-47
2021/03/20 03:04:49;;;;;;;3.85;2.55;;;;;;;0.50;79.24;103172.97;5057509;28;20049;-47
2021/03/20 03:07:21;;;;;;;3.25;2.10;;;;;;;0.45;79.45;103172.63;5070859;28;20469;-49
2021/03/20 03:09:52;;;;;;;3.47;1.88;;;;;;;0.43;79.15;103177.44;5064729;28;20135;-47
2021/03/20 03:12:24;;;;;;;3.22;1.85;;;;;;;0.42;79.91;103168.34;5050565;28;20057;-47
2021/03/20 03:14:53;;;;;;;;;;;;;;;0.33;79.70;103178.50;5055930;28;20084;-46
2021/03/20 03:17:24;;;;;;;3.80;2.30;;;;;;;0.28;80.30;103172.69;5030983;28;19968;-47
2021/03/20 03:19:58;;;;;;;3.58;2.05;;;;;;;0.30;79.85;103172.50;5052589;28;20490;-46
2021/03/20 03:22:42;;;;;;;4.78;2.08;;;;;;;0.30;79.71;103170.63;5069841;28;20551;-47
2021/03/20 03:25:13;;;;;;;3.22;1.92;;;;;;;0.27;79.85;103173.72;5061003;28;20136;-45
2021/03/20 03:27:45;;;;;;;5.47;3.13;;;;;;;0.27;79.46;103159.13;5031232;28;20061;-47
2021/03/20 03:30:15;;;;;;;4.72;3.03;;;;;;;0.22;79.33;103158.78;5051972;28;20098;-48
2021/03/20 03:32:46;;;;;;;4.50;2.60;;;;;;;0.19;79.21;103160.00;5069626;28;20578;-46
2021/03/20 03:35:21;;;;;;;5.57;2.17;;;;;;;0.18;79.67;103154.69;5064748;28;20040;-48
2021/03/20 03:37:56;;;;;;;4.32;2.25;;;;;;;0.18;79.80;103151.94;5052247;28;20060;-49
2021/03/20 03:40:28;;;;;;;3.53;2.00;;;;;;;0.17;80.34;103156.59;5056047;28;20045;-52
2021/03/20 03:42:55;;;;;;;;;;;;;;;0.10;80.15;103151.94;5068608;28;20110;-51
2021/03/20 03:45:23;;;;;;;5.60;2.58;;;;;;;0.09;80.38;103147.50;5064785;28;19959;-49
2021/03/20 03:47:49;;;;;;;4.38;2.35;;;;;;;0.11;80.12;103148.19;5055093;28;20133;-47
2021/03/20 03:50:21;;;;;;;3.40;2.10;;;;;;;0.13;80.18;103151.59;5054896;28;20091;-48
2021/03/20 03:52:48;;;;;;;3.10;1.83;;;;;;;0.12;79.86;103153.50;5064744;28;20052;-48
2021/03/20 03:55:15;;;;;;;3.50;2.33;;;;;;;0.12;80.21;103150.75;5064761;28;20521;-47
2021/03/20 03:58:02;;;;;;;6.38;2.65;;;;;;;0.12;80.19;103153.50;5057925;28;20044;-48
2021/03/20 04:00:37;;;;;;;3.50;2.15;;;;;;;0.11;80.08;103154.53;5055524;28;20060;-49
2021/03/20 04:03:33;;;;;;;4.10;2.67;;;;;;;0.12;79.98;103160.88;5063738;28;20047;-45
2021/03/20 04:06:19;;;;;;;4.65;2.40;;;;;;;0.08;80.22;103160.34;5064745;28;20126;-49
2021/03/20 04:08:55;;;;;;;4.38;2.58;;;;;;;0.06;80.32;103161.56;5052826;28;20067;-48
2021/03/20 04:11:37;;;;;;;4.18;2.42;;;;;;;0.05;79.81;103166.19;5054949;28;20151;-50
2021/03/20 04:14:12;;;;;;;3.80;2.30;;;;;;;0.05;80.33;103168.06;5068135;28;20463;-46
2021/03/20 04:16:48;;;;;;;3.17;1.90;;;;;;;0.03;80.39;103171.00;5064514;28;20094;-46
2021/03/20 04:19:25;;;;;;;4.47;2.55;;;;;;;0.03;80.37;103178.38;5049673;28;20421;-50
2021/03/20 04:21:57;;;;;;;6.28;3.78;;;;;;;0.01;80.54;103181.28;5055576;28;20076;-49
2021/03/20 04:24:29;;;;;;;4.65;3.42;;;;;;;-0.02;79.84;103181.66;5069679;28;20052;-45
2021/03/20 04:26:58;;;;;;;;;;;;;;;-0.11;79.83;103171.69;5060515;28;20052;-46
2021/03/20 04:29:33;;;;;;;3.85;2.20;;;;;;;-0.15;80.56;103171.19;5071241;28;19920;-45
2021/03/20 04:32:05;;;;;;;3.08;2.20;;;;;;;-0.14;80.09;103174.78;5067580;28;20048;-50
2021/03/20 04:34:39;;;;;;;3.60;2.00;;;;;;;-0.13;80.70;103177.34;5057141;28;20049;-48
2021/03/20 04:37:10;;;;;;;4.07;2.75;;;;;;;-0.12;80.77;103175.47;5058933;28;20045;-48
2021/03/20 04:39:42;;;;;;;5.50;2.53;;;;;;;-0.15;80.51;103179.41;5069561;28;20398;-45
2021/03/20 04:42:17;;;;;;;4.57;2.53;;;;;;;-0.17;80.77;103183.34;5067838;28;20051;-48
2021/03/20 04:44:44;;;;;;;5.72;3.30;;;;;;;-0.18;80.06;103170.66;5057833;28;20057;-45
2021/03/20 04:47:15;;;;;;;4.68;3.13;;;;;;;-0.20;80.06;103173.56;5056779;28;20103;-45
2021/03/20 04:49:47;;;;;;;4.35;2.15;;;;;;;-0.22;79.99;103172.06;5067407;28;20048;-49
2021/03/20 04:52:20;;;;;;;3.65;2.20;;;;;;;-0.23;81.03;103175.81;5067718;28;20036;-46
2021/03/20 04:54:48;;;;;;;3.28;2.35;;;;;;;-0.23;80.55;103173.94;5060061;28;20052;-46
2021/03/20 04:57:25;;;;;;;4.40;2.50;;;;;;;-0.21;80.63;103171.88;5058387;28;20033;-47
2021/03/20 04:59:59;;;;;;;4.95;2.88;;;;;;;-0.18;80.82;103170.66;5064106;28;20382;-47
2021/03/20 05:02:31;;;;;;;5.85;3.40;;;;;;;-0.18;80.41;103167.91;5067660;28;20487;-46
2021/03/20 05:05:05;;;;;;;3.90;2.55;;;;;;;-0.18;80.34;103162.41;5059817;28;20075;-45
2021/03/20 05:07:34;;;;;;;4.50;2.72;;;;;;;-0.19;80.46;103157.97;5057702;28;20151;-47
2021/03/20 05:10:07;;;;;;;6.40;3.55;;;;;;;-0.20;80.81;103153.53;5064210;28;20071;-49
2021/03/20 05:12:35;;;;;;;5.85;3.85;;;;;;;-0.22;80.67;103147.38;5067626;28;20049;-48
2021/03/20 05:15:20;;;;;;;4.13;2.15;;;;;;;-0.25;80.84;103148.56;5062660;28;20358;-45
2021/03/20 05:17:47;;;;;;;5.60;3.45;;;;;;;-0.27;80.92;103145.13;5057665;28;20523;-45
2021/03/20 05:20:14;;;;;;;8.30;4.70;;;;;;;-0.27;80.38;103144.25;5062895;28;20052;-50
2021/03/20 05:22:42;;;;;;;4.18;2.15;;;;;;;-0.28;81.13;103134.31;5067871;28;20065;-49
2021/03/20 05:25:13;;;;;;;4.78;2.40;;;;;;;-0.27;80.97;103133.28;5068184;28;20689;-46
2021/03/20 05:27:40;;;;;;;5.53;3.88;;;;;;;-0.25;80.69;103137.59;5069374;28;20147;-47
2021/03/20 05:30:09;;;;;;;4.57;2.95;;;;;;;-0.24;80.97;103130.22;5063707;28;20045;-49
2021/03/20 05:32:36;;;;;;;3.60;2.28;;;;;;;-0.24;80.70;103135.69;5054011;28;20079;-46
2021/03/20 05:35:08;;;;;;;5.93;3.85;;;;;;;-0.25;81.27;103134.84;5059267;28;20139;-45
2021/03/20 05:37:39;;;;;;;7.80;4.45;;;;;;;-0.27;81.26;103133.28;5071569;28;20045;-46
2021/03/20 05:40:18;;;;;;;5.97;3.88;;;;;;;-0.27;81.56;103128.66;5064398;28;20049;-48
2021/03/20 05:43:20;;;;;;;4.50;2.88;;;;;;;-0.27;81.43;103125.06;5052689;28;20147;-48
2021/03/20 05:45:58;;;;;;;3.67;2.35;;;;;;;-0.27;81.66;103131.41;5061072;28;20128;-45
2021/03/20 05:48:29;;;;;;;5.88;3.00;;;;;;;-0.23;81.86;103134.66;5054344;28;20055;-47
2021/03/20 05:51:21;;;;;;;6.20;3.67;;;;;;;-0.19;81.78;103138.75;5060185;28;20044;-47
2021/03/20 05:54:27;;;;;;;7.22;4.93;;;;;;;-0.16;81.56;103136.53;5067420;28;20128;-46
2021/03/20 05:57:10;;;;;;;6.40;3.70;;;;;;;-0.08;81.77;103138.41;5055551;28;20076;-47
2021/03/20 05:59:47;;;;;;;5.53;3.63;;;;;;;-0.02;81.65;103135.84;5066602;28;20466;-48
2021/03/20 06:02:50;;;;;;;6.00;2.92;;;;;;;0.06;81.40;103129.47;5057318;28;20049;-47
2021/03/20 06:05:34;;;;;;;6.82;4.00;;;;;;;0.08;81.34;103143.88;5057096;28;20071;-47
2021/03/20 06:08:15;;;;;;;4.90;3.13;;;;;;;0.14;81.32;103150.56;5032305;28;20192;-47
2021/03/20 06:10:55;;;;;;;4.55;2.67;;;;;;;0.16;81.18;103146.63;5054291;28;20128;-49
2021/03/20 06:13:57;;;;;;;4.30;2.70;;;;;;;0.20;80.84;103153.47;5032014;28;20498;-48
2021/03/20 06:16:27;;;;;;;4.97;2.85;;;;;;;0.23;82.06;103157.75;5055913;28;20094;-44
2021/03/20 06:19:17;;;;;;;5.20;3.58;;;;;;;0.28;81.59;103150.72;5051308;28;20049;-47
2021/03/20 06:22:09;;;;;;;7.32;4.60;;;;;;;0.31;81.53;103144.88;5059349;28;20094;-46
2021/03/20 06:25:19;;;;;;;5.75;3.10;;;;;;;0.34;81.31;103144.53;5050612;28;20050;-45
2021/03/20 06:27:49;;;;;;;9.45;3.55;;;;;;;0.39;81.37;103149.50;5056363;28;20048;-46
2021/03/20 06:30:30;;;;;;;9.23;4.20;;;;;;;0.48;81.39;103151.19;5065987;28;20056;-50
2021/03/20 06:33:01;;;;;;;7.00;2.95;;;;;;;0.53;81.36;103151.50;5058644;28;20055;-48
2021/03/20 06:35:36;;;;;;;5.63;3.47;;;;;;;0.61;81.87;103156.97;5056583;28;20490;-48
2021/03/20 06:38:05;;;;;;;9.00;3.90;;;;;;;0.68;81.18;103166.22;5062666;28;20166;-47
2021/03/20 06:40:47;;;;;;;7.90;3.83;;;;;;;0.77;81.42;103167.06;5065709;28;20041;-47
2021/03/20 06:43:17;;;;;;;7.35;3.45;;;;;;;0.84;81.65;103165.28;5058112;28;20084;-49
2021/03/20 06:45:45;;;;;;;9.18;4.10;;;;;;;0.98;81.01;103161.81;5055749;28;20090;-51
2021/03/20 06:48:16;;;;;;;9.70;4.05;;;;;;;1.15;81.63;103161.72;5060620;28;20121;-48
2021/03/20 06:50:45;;;;;;;8.10;3.80;;;;;;;1.33;80.99;103157.66;5066016;28;20055;-45
2021/03/20 06:53:16;;;;;;;7.55;3.97;;;;;;;1.53;80.97;103159.91;5044134;28;20056;-48
2021/03/20 06:55:45;;;;;;;10.35;4.32;;;;;;;1.75;81.01;103152.69;5067649;28;20044;-47
2021/03/20 06:58:21;;;;;;;8.32;4.43;;;;;;;1.96;80.57;103152.88;5062134;28;20049;-45
2021/03/20 07:00:49;;;;;;;13.32;6.15;;;;;;;2.17;80.69;103143.88;5052739;28;20053;-48
2021/03/20 07:03:45;;;;;;;12.40;6.30;;;;;;;2.43;80.40;103145.13;5050854;28;20045;-50
2021/03/20 07:06:17;;;;;;;9.60;4.85;;;;;;;2.66;80.44;103144.19;5047248;28;20037;-48
2021/03/20 07:08:51;;;;;;;10.05;5.07;;;;;;;2.95;80.04;103143.31;5050744;28;20059;-48
2021/03/20 07:11:22;;;;;;;10.48;4.38;;;;;;;3.25;80.03;103144.09;5050951;28;20418;-48
2021/03/20 07:14:11;;;;;;;6.65;3.47;;;;;;;3.58;79.46;103136.19;5050687;28;20154;-54
2021/03/20 07:17:03;;;;;;;7.43;3.55;;;;;;;3.89;78.65;103130.28;5053445;28;20449;-49
2021/03/20 07:19:31;;;;;;;5.30;3.00;;;;;;;4.14;78.08;103137.97;5041967;28;20065;-51
2021/03/20 07:22:07;;;;;;;6.60;3.17;;;;;;;4.45;77.01;103139.44;5051217;28;20147;-53
2021/03/20 07:24:37;;;;;;;5.28;3.20;;;;;;;4.72;76.70;103134.94;5049140;28;20137;-48
2021/03/20 07:27:20;;;;;;;4.97;3.42;;;;;;;5.03;76.42;103140.81;5054269;28;20052;-51
2021/03/20 07:29:50;;;;;;;5.63;3.50;;;;;;;5.35;75.43;103144.78;5049849;28;20414;-52
2021/03/20 07:32:31;;;;;;;8.05;3.60;;;;;;;5.65;75.05;103141.63;5054324;28;20057;-48
2021/03/20 07:35:13;;;;;;;7.38;3.85;;;;;;;5.97;74.65;103142.78;5049553;28;20532;-54
2021/03/20 07:37:40;;;;;;;5.22;3.55;;;;;;;6.26;74.37;103142.31;5049440;28;20052;-52
2021/03/20 07:40:14;;;;;;;6.20;3.63;;;;;;;6.61;73.89;103144.81;5052123;28;20045;-50
2021/03/20 07:42:42;;;;;;;7.03;3.50;;;;;;;6.90;72.95;103133.22;5050403;28;20041;-52
2021/03/20 07:45:27;;;;;;;6.25;3.63;;;;;;;7.21;72.03;103129.66;5049442;28;20076;-52
2021/03/20 07:48:04;;;;;;;5.72;3.72;;;;;;;7.52;71.03;103131.63;5053806;28;20048;-49
2021/03/20 07:50:33;;;;;;;5.88;3.80;;;;;;;7.88;70.60;103128.16;5041454;28;20553;-52
2021/03/20 07:53:08;;;;;;;6.70;3.70;;;;;;;8.16;69.71;103127.72;5047112;28;20041;-51
2021/03/20 07:55:54;;;;;;;6.05;3.33;;;;;;;8.24;68.23;103119.06;5048310;28;20455;-51
2021/03/20 07:58:23;;;;;;;5.75;3.05;;;;;;;8.30;67.26;103126.53;5051693;28;20053;-47
2021/03/20 08:00:56;;;;;;;7.57;3.80;;;;;;;8.37;67.09;103135.69;5054412;28;20037;-49
2021/03/20 08:03:27;;;;;;;6.32;3.10;;;;;;;8.50;66.56;103129.13;5056030;28;20033;-49
2021/03/20 08:05:54;;;;;;;5.10;3.00;;;;;;;8.63;66.17;103123.41;5053511;28;20549;-53
2021/03/20 08:08:23;;;;;;;8.20;3.13;;;;;;;8.86;66.15;103128.28;5054574;28;20067;-52
2021/03/20 08:10:52;;;;;;;7.07;3.42;;;;;;;9.11;65.09;103115.13;5053815;28;20045;-52
2021/03/20 08:13:44;;;;;;;6.93;2.95;;;;;;;9.35;64.42;103118.88;5055868;28;20049;-54
2021/03/20 08:16:15;;;;;;;4.93;2.95;;;;;;;9.39;63.75;103116.47;5051520;28;20136;-55
2021/03/20 08:18:44;;;;;;;4.85;2.72;;;;;;;9.53;63.54;103116.06;5054302;28;20470;-49
2021/03/20 08:21:31;;;;;;;6.47;2.78;;;;;;;9.63;62.26;103116.31;5054807;28;20095;-52
2021/03/20 08:24:28;;;;;;;8.43;3.08;;;;;;;9.71;62.67;103129.06;5053266;28;20099;-53
2021/03/20 08:27:04;;;;;;;6.05;2.60;;;;;;;10.00;62.64;103132.88;5043051;28;20151;-52
2021/03/20 08:30:04;;;;;;;7.55;3.40;;;;;;;10.43;61.23;103118.63;5053065;28;20045;-54
2021/03/20 08:32:52;;;;;;;7.32;3.08;;;;;;;10.62;60.91;103116.56;5055040;28;20156;-52
2021/03/20 08:35:25;;;;;;;10.48;3.45;;;;;;;10.63;60.33;103121.91;5053774;28;20049;-54
2021/03/20 08:38:08;;;;;;;6.80;3.50;;;;;;;10.89;60.21;103123.31;5050977;28;20041;-53
2021/03/20 08:40:44;;;;;;;;;;;;;;;10.86;57.53;103122.97;5059026;28;20558;-50
2021/03/20 08:43:47;;;;;;;5.13;2.80;;;;;;;11.09;59.10;103122.91;5049545;28;20339;-53
2021/03/20 08:46:27;;;;;;;6.43;3.40;;;;;;;11.16;59.06;103126.41;5056974;28;20056;-51
2021/03/20 08:49:08;;;;;;;8.53;3.73;;;;;;;11.36;58.56;103112.00;5051734;28;20041;-50
2021/03/20 08:51:46;;;;;;;8.23;4.03;;;;;;;11.47;57.27;103115.84;5058992;28;20291;-54
2021/03/20 08:54:37;;;;;;;8.40;3.78;;;;;;;11.10;57.62;103121.81;5050841;28;20057;-51
2021/03/20 08:57:14;;;;;;;5.68;3.10;;;;;;;10.95;58.27;103107.53;5053613;28;20079;-49
2021/03/20 08:59:47;;;;;;;6.82;2.70;;;;;;;11.00;58.37;103114.06;5050102;28;20040;-52
2021/03/20 09:02:34;;;;;;;;;;;;;;;10.77;55.15;103102.09;5059656;28;20095;-49
2021/03/20 09:05:11;;;;;;;6.10;1.70;;;;;;;10.86;57.62;103106.19;5042365;28;19924;-51
2021/03/20 09:07:44;;;;;;;4.28;1.80;;;;;;;10.90;57.43;103113.00;5055816;28;20094;-53
2021/03/20 09:10:17;;;;;;;4.90;1.52;;;;;;;10.75;57.35;103109.88;5051082;28;20382;-50
2021/03/20 09:12:52;;;;;;;5.72;1.75;;;;;;;10.77;57.64;103113.28;5054682;28;20036;-51
2021/03/20 09:15:24;;;;;;;5.40;1.40;;;;;;;10.81;57.44;103111.66;5054107;28;20045;-51
2021/03/20 09:17:53;;;;;;;5.80;1.35;;;;;;;10.85;57.02;103110.09;5057390;28;20049;-52
2021/03/20 09:20:29;;;;;;;4.72;1.55;;;;;;;10.97;56.47;103102.53;5052535;28;20520;-58
2021/03/20 09:22:59;;;;;;;7.03;1.50;;;;;;;11.16;56.90;103103.22;5057174;28;20114;-55
2021/03/20 09:25:32;;;;;;;8.00;1.70;;;;;;;11.51;55.65;103103.06;5055784;28;20140;-54
2021/03/20 09:28:12;;;;;;;9.35;1.17;;;;;;;12.00;54.66;103098.63;5053696;28;20040;-49
2021/03/20 09:30:41;;;;;;;3.92;0.80;;;;;;;12.28;52.81;103103.31;5049227;28;20049;-51
2021/03/20 09:33:29;;;;;;;6.15;1.00;;;;;;;12.20;51.59;103101.78;5052432;28;20108;-53
2021/03/20 09:35:59;;;;;;;4.90;0.85;;;;;;;11.86;53.04;103095.34;5051803;28;20041;-54
2021/03/20 09:38:49;;;;;;;5.25;0.68;;;;;;;11.78;53.24;103095.78;5056854;28;20053;-47
2021/03/20 09:41:35;;;;;;;4.35;0.93;;;;;;;11.97;52.24;103102.81;5051807;28;20056;-54
2021/03/20 09:44:14;;;;;;;4.32;0.75;;;;;;;11.88;52.11;103095.94;5047522;28;20072;-49
2021/03/20 09:46:49;;;;;;;4.93;0.68;;;;;;;11.76;52.91;103100.78;5052981;28;20451;-48
2021/03/20 09:49:37;;;;;;;3.95;0.77;;;;;;;11.60;53.06;103095.94;5053090;28;20064;-52
2021/03/20 09:52:06;;;;;;;3.83;0.77;;;;;;;11.77;53.58;103101.63;5050123;28;20106;-46
2021/03/20 09:54:41;;;;;;;2.20;0.60;;;;;;;11.75;53.79;103104.63;5050266;28;20076;-52
2021/03/20 09:57:50;;;;;;;2.58;0.60;;;;;;;11.57;53.73;103102.91;5049238;28;20573;-48
2021/03/20 10:00:47;;;;;;;2.72;0.77;;;;;;;11.93;53.12;103101.63;5050874;28;20056;-48
2021/03/20 10:03:36;;;;;;;2.95;0.50;;;;;;;12.37;51.94;103099.84;5054225;28;20072;-49
2021/03/20 10:06:13;;;;;;;2.13;0.70;;;;;;;12.36;51.59;103102.88;5049750;28;20045;-49
2021/03/20 10:08:43;;;;;;;2.55;0.63;;;;;;;12.31;51.83;103105.59;5051632;28;20095;-49
2021/03/20 10:11:29;;;;;;;4.75;0.80;;;;;;;12.14;51.84;103096.38;5046812;28;20057;-51
2021/03/20 10:13:57;;;;;;;2.65;0.75;;;;;;;12.10;52.66;103097.97;5052627;28;20041;-50
2021/03/20 10:16:32;;;;;;;2.67;0.50;;;;;;;11.93;52.84;103095.19;5050082;28;20049;-51
2021/03/20 10:19:09;;;;;;;2.67;0.57;;;;;;;11.70;52.92;103093.34;5056973;28;20053;-50
2021/03/20 10:21:39;;;;;;;4.60;0.60;;;;;;;11.40;53.82;103094.47;5049571;28;20291;-50
2021/03/20 10:24:23;;;;;;;3.42;0.65;;;;;;;11.12;53.73;103096.41;5052246;28;20033;-53
2021/03/20 10:26:58;;;;;;;2.45;0.52;;;;;;;10.76;55.18;103094.81;5051980;28;20136;-50
2021/03/20 10:29:33;;;;;;;3.15;0.90;;;;;;;10.53;55.95;103092.91;5052209;28;20095;-51
2021/03/20 10:32:17;;;;;;;2.17;0.70;;;;;;;10.36;56.41;103090.03;5044948;28;20064;-52
2021/03/20 10:34:50;;;;;;;3.67;0.85;;;;;;;10.34;56.98;103092.19;5055550;28;20044;-52
2021/03/20 10:37:19;;;;;;;2.78;0.70;;;;;;;10.37;56.57;103096.44;5049099;28;20576;-53
2021/03/20 10:39:47;;;;;;;3.05;0.70;;;;;;;10.29;56.63;103094.84;5054425;28;20052;-51
2021/03/20 10:42:26;;;;;;;3.08;0.85;;;;;;;10.06;56.33;103086.44;5051935;28;20057;-53
2021/03/20 10:44:57;;;;;;;3.10;0.80;;;;;;;9.88;57.81;103090.19;5052412;28;20564;-51
2021/03/20 10:47:30;;;;;;;2.83;0.60;;;;;;;9.75;58.21;103080.13;5049131;28;20490;-52
2021/03/20 10:50:01;;;;;;;2.60;0.50;;;;;;;9.64;58.86;103080.91;5054611;28;20464;-52
2021/03/20 10:52:34;;;;;;;3.10;0.63;;;;;;;9.49;59.23;103081.38;5048697;28;20458;-48
2021/03/20 10:55:15;;;;;;;3.38;0.80;;;;;;;9.39;59.68;103074.69;5049577;28;20098;-54
2021/03/20 10:57:43;;;;;;;4.00;0.60;;;;;;;9.31;59.99;103073.06;5049408;28;20048;-51
2021/03/20 11:00:21;;;;;;;2.88;0.63;;;;;;;9.29;60.32;103069.66;5053401;28;20064;-51
2021/03/20 11:02:49;;;;;;;4.35;0.70;;;;;;;9.24;60.63;103070.38;5050726;28;20056;-50
2021/03/20 11:05:31;;;;;;;3.97;0.70;;;;;;;9.09;60.53;103061.59;5053764;28;20139;-51
2021/03/20 11:08:10;;;;;;;3.92;0.70;;;;;;;8.96;61.43;103067.34;5049051;28;20571;-51
2021/03/20 11:10:40;;;;;;;3.63;0.70;;;;;;;8.95;61.75;103062.88;5050152;28;20048;-51
2021/03/20 11:13:20;;;;;;;4.88;0.80;;;;;;;8.97;62.14;103056.00;5051051;28;20510;-48
2021/03/20 11:15:50;;;;;;;2.97;0.63;;;;;;;9.01;62.63;103058.28;5053918;28;20147;-52
2021/03/20 11:18:22;;;;;;;4.50;1.08;;;;;;;9.05;62.64;103065.09;5050282;28;20084;-49
2021/03/20 11:20:48;;;;;;;1.70;0.60;;;;;;;8.99;62.53;103056.56;5052854;28;20052;-50
2021/03/20 11:23:30;;;;;;;5.15;0.90;;;;;;;8.97;62.60;103063.50;5068822;28;20490;-48
2021/03/20 11:26:08;;;;;;;5.57;0.88;;;;;;;8.96;62.92;103064.56;5052349;28;20493;-51
2021/03/20 11:28:36;;;;;;;3.72;0.90;;;;;;;8.84;63.25;103058.06;5050598;28;20413;-50
2021/03/20 11:31:05;;;;;;;5.55;0.90;;;;;;;8.73;63.55;103056.94;5053837;28;20049;-50
2021/03/20 11:33:38;;;;;;;2.78;0.70;;;;;;;8.62;63.78;103050.22;5047585;28;20155;-53
2021/03/20 11:36:09;;;;;;;4.32;0.90;;;;;;;8.58;64.46;103053.72;5053796;28;20102;-49
2021/03/20 11:38:36;;;;;;;2.88;1.00;;;;;;;8.54;65.19;103036.63;5056862;28;20048;-51
2021/03/20 11:41:20;;;;;;;3.00;0.70;;;;;;;8.53;65.86;103046.06;5055124;28;20140;-51
2021/03/20 11:43:51;;;;;;;4.50;0.75;;;;;;;8.54;66.39;103035.78;5053775;28;20091;-53
2021/03/20 11:46:21;;;;;;;3.50;0.60;;;;;;;8.57;67.18;103030.59;5061764;28;20070;-48
2021/03/20 11:48:54;;;;;;;2.92;0.60;;;;;;;8.61;67.73;103030.94;5053409;28;20041;-51
2021/03/20 11:51:27;;;;;;;2.53;0.77;;;;;;;8.67;68.26;103030.03;5056645;28;20048;-48
2021/03/20 11:53:58;;;;;;;2.40;0.60;;;;;;;8.81;68.53;103022.34;5056560;28;20514;-52
2021/03/20 11:56:28;;;;;;;3.72;0.70;;;;;;;8.90;68.52;103024.59;5055382;28;20044;-50
2021/03/20 11:58:58;;;;;;;4.68;0.70;;;;;;;8.92;68.59;103018.78;5054719;28;20041;-48
2021/03/20 12:01:29;;;;;;;3.88;0.85;;;;;;;8.93;69.35;103021.34;5057731;28;20056;-53
2021/03/20 12:04:00;;;;;;;3.83;0.80;;;;;;;8.94;69.64;103019.41;5052062;28;20120;-48
2021/03/20 12:06:30;;;;;;;2.75;0.60;;;;;;;8.87;70.17;103015.84;5055459;28;20052;-52